createdAt,value
2023-04-08T00:01:40.346Z,3.00
2023-04-08T00:04:09.624Z,3.03
2023-04-08T00:06:37.265Z,3.10
2023-04-08T00:09:04.345Z,3.00
2023-04-08T00:11:32.464Z,3.07
2023-04-08T00:14:00.626Z,3.07
2023-04-08T00:16:28.086Z,3.00
2023-04-08T00:18:55.477Z,3.10
2023-04-08T00:21:23.450Z,3.10
2023-04-08T00:23:50.438Z,3.00
2023-04-08T00:26:17.407Z,3.10
2023-04-08T00:28:45.012Z,3.10
2023-04-08T00:31:12.450Z,3.10
2023-04-08T00:33:39.466Z,3.10
2023-04-08T00:36:06.624Z,3.03
2023-04-08T00:38:33.627Z,3.23
2023-04-08T00:41:00.706Z,3.13
2023-04-08T00:43:27.745Z,3.07
2023-04-08T00:45:54.830Z,3.10
2023-04-08T00:48:22.054Z,3.03
2023-04-08T00:50:49.219Z,3.10
2023-04-08T00:53:19.501Z,3.10
2023-04-08T00:55:47.070Z,3.00
2023-04-08T00:58:15.458Z,3.00
2023-04-08T01:00:59.543Z,3.00
2023-04-08T01:03:58.342Z,3.00
2023-04-08T01:06:42.677Z,3.00
2023-04-08T01:09:12.604Z,2.97
2023-04-08T01:11:44.883Z,3.07
2023-04-08T01:14:21.352Z,2.97
2023-04-08T01:16:49.002Z,3.07
2023-04-08T01:19:30.527Z,3.00
2023-04-08T01:22:28.282Z,3.10
2023-04-08T01:25:07.952Z,3.10
2023-04-08T01:27:36.347Z,3.07
2023-04-08T01:30:07.964Z,3.00
2023-04-08T01:32:36.949Z,3.10
2023-04-08T01:35:06.165Z,3.00
2023-04-08T01:37:34.601Z,3.03
2023-04-08T01:40:03.443Z,2.93
2023-04-08T01:42:32.591Z,3.00
2023-04-08T01:45:00.879Z,2.93
2023-04-08T01:47:30.116Z,2.97
2023-04-08T01:49:59.215Z,3.00
2023-04-08T01:52:29.270Z,3.03
2023-04-08T01:54:56.906Z,3.00
2023-04-08T01:57:37.040Z,3.00
2023-04-08T02:00:11.067Z,3.03
2023-04-08T02:02:48.514Z,3.10
2023-04-08T02:05:16.669Z,2.93
2023-04-08T02:07:46.575Z,3.00
2023-04-08T02:10:14.052Z,2.90
2023-04-08T02:12:41.088Z,3.00
2023-04-08T02:15:12.834Z,3.10
2023-04-08T02:17:56.229Z,2.90
2023-04-08T02:21:13.602Z,3.10
2023-04-08T02:23:46.345Z,3.00
2023-04-08T02:26:16.677Z,3.00
2023-04-08T02:28:44.849Z,2.93
2023-04-08T02:31:14.765Z,3.00
2023-04-08T02:33:47.846Z,2.97
2023-04-08T02:36:15.998Z,3.10
2023-04-08T02:38:48.551Z,3.03
2023-04-08T02:41:17.066Z,2.97
2023-04-08T02:43:44.630Z,2.93
2023-04-08T02:46:12.388Z,3.07
2023-04-08T02:48:39.848Z,3.13
2023-04-08T02:51:06.913Z,3.07
2023-04-08T02:53:34.374Z,2.97
2023-04-08T02:56:01.892Z,3.07
2023-04-08T02:58:28.934Z,3.07
2023-04-08T03:00:56.476Z,3.10
2023-04-08T03:03:31.188Z,3.00
2023-04-08T03:05:59.156Z,2.90
2023-04-08T03:08:26.332Z,3.00
2023-04-08T03:10:53.837Z,3.03
2023-04-08T03:13:20.813Z,3.00
2023-04-08T03:15:48.281Z,3.00
2023-04-08T03:18:15.847Z,3.03
2023-04-08T03:20:43.249Z,2.97
2023-04-08T03:23:10.786Z,3.00
2023-04-08T03:25:37.844Z,3.00
2023-04-08T03:28:04.858Z,3.17
2023-04-08T03:30:32.687Z,2.93
2023-04-08T03:33:00.239Z,3.03
2023-04-08T03:35:27.292Z,3.03
2023-04-08T03:37:55.507Z,3.00
2023-04-08T03:40:22.972Z,3.00
2023-04-08T03:42:49.961Z,3.00
2023-04-08T03:45:17.370Z,3.00
2023-04-08T03:47:44.344Z,3.00
2023-04-08T03:50:11.873Z,3.00
2023-04-08T03:52:39.269Z,3.00
2023-04-08T03:55:06.993Z,3.00
2023-04-08T03:57:33.967Z,3.00
2023-04-08T04:00:01.382Z,3.07
2023-04-08T04:02:29.567Z,3.00
2023-04-08T04:04:57.227Z,3.00
2023-04-08T04:07:28.545Z,3.00
2023-04-08T04:09:57.017Z,3.00
2023-04-08T04:12:24.360Z,2.93
2023-04-08T04:14:51.334Z,3.00
2023-04-08T04:17:18.371Z,2.97
2023-04-08T04:19:45.426Z,2.97
2023-04-08T04:22:12.812Z,3.13
2023-04-08T04:24:40.265Z,3.00
2023-04-08T04:27:07.213Z,3.03
2023-04-08T04:29:34.611Z,3.00
2023-04-08T04:32:01.647Z,3.00
2023-04-08T04:34:29.110Z,2.97
2023-04-08T04:36:56.635Z,2.90
2023-04-08T04:39:23.631Z,2.90
2023-04-08T04:41:51.284Z,3.00
2023-04-08T04:44:19.573Z,2.90
2023-04-08T04:46:46.952Z,2.90
2023-04-08T04:49:13.952Z,2.93
2023-04-08T04:51:40.890Z,2.83
2023-04-08T04:54:07.978Z,2.83
2023-04-08T04:56:35.437Z,2.90
2023-04-08T04:59:02.437Z,2.90
2023-04-08T05:01:29.532Z,2.87
2023-04-08T05:03:57.142Z,2.93
2023-04-08T05:06:24.303Z,2.87
2023-04-08T05:08:51.944Z,2.97
2023-04-08T05:11:19.656Z,2.90
2023-04-08T05:13:46.602Z,2.80
2023-04-08T05:16:14.060Z,2.83
2023-04-08T05:18:41.498Z,2.80
2023-04-08T05:21:08.570Z,2.80
2023-04-08T05:23:35.992Z,2.80
2023-04-08T05:26:03.419Z,2.80
2023-04-08T05:28:31.328Z,2.83
2023-04-08T05:30:58.404Z,2.80
2023-04-08T05:33:26.528Z,2.87
2023-04-08T05:35:53.984Z,2.90
2023-04-08T05:38:21.113Z,2.80
2023-04-08T05:40:48.247Z,2.87
2023-04-08T05:43:15.307Z,2.80
2023-04-08T05:45:42.275Z,2.80
2023-04-08T05:48:09.314Z,2.80
2023-04-08T05:50:36.343Z,2.83
2023-04-08T05:53:03.327Z,2.83
2023-04-08T05:55:30.434Z,2.80
2023-04-08T05:57:57.411Z,2.80
2023-04-08T06:00:24.794Z,2.90
2023-04-08T06:02:52.018Z,2.90
2023-04-08T06:05:19.667Z,2.80
2023-04-08T06:07:47.111Z,2.90
2023-04-08T06:10:14.227Z,2.83
2023-04-08T06:12:41.222Z,2.93
2023-04-08T06:15:09.509Z,2.90
2023-04-08T06:17:38.369Z,2.90
2023-04-08T06:20:09.387Z,3.00
2023-04-08T06:22:37.847Z,2.90
2023-04-08T09:16:44.412Z,2.67
2023-04-08T09:19:12.509Z,2.87
2023-04-08T09:21:41.358Z,2.80
2023-04-08T09:24:10.928Z,2.90
2023-04-08T09:26:38.736Z,2.73
2023-04-08T09:29:25.013Z,2.80
2023-04-08T09:32:01.444Z,2.77
2023-04-08T09:34:32.136Z,2.63
2023-04-08T09:36:59.558Z,2.83
2023-04-08T09:39:26.576Z,2.90
2023-04-08T09:41:58.764Z,3.00
2023-04-08T09:44:30.315Z,2.80
2023-04-08T09:47:20.443Z,3.00
2023-04-08T09:49:58.362Z,2.87
2023-04-08T09:52:34.275Z,2.80
2023-04-08T09:55:09.289Z,2.80
2023-04-08T09:57:55.654Z,2.80
2023-04-08T10:00:34.575Z,2.70
2023-04-08T10:03:26.916Z,2.90
2023-04-08T10:05:56.520Z,3.00
2023-04-08T10:08:25.993Z,3.00
2023-04-08T10:10:56.251Z,2.70
2023-04-08T10:13:25.926Z,2.90
2023-04-08T10:16:25.867Z,2.90
2023-04-08T10:18:56.706Z,2.80
2023-04-08T10:21:48.433Z,2.80
2023-04-08T10:24:15.898Z,2.80
2023-04-08T10:26:45.556Z,2.77
2023-04-08T10:29:18.634Z,2.80
2023-04-08T10:31:51.319Z,3.00
2023-04-08T10:34:21.116Z,2.90
2023-04-08T10:36:49.701Z,2.90
2023-04-08T10:39:17.300Z,2.90
2023-04-08T10:41:51.804Z,2.73
2023-04-08T10:44:26.201Z,2.80
2023-04-08T10:46:54.996Z,2.80
2023-04-08T10:49:22.045Z,2.73
2023-04-08T10:51:50.090Z,2.80
2023-04-08T10:54:18.862Z,2.73
2023-04-08T10:56:53.484Z,2.77
2023-04-08T10:59:32.844Z,2.70
2023-04-08T11:02:01.249Z,2.83
2023-04-08T11:04:29.114Z,2.80
2023-04-08T11:06:56.355Z,2.90
2023-04-08T11:09:23.335Z,2.80
2023-04-08T11:11:52.451Z,2.90
2023-04-08T11:14:21.815Z,2.70
2023-04-08T11:16:48.922Z,2.80
2023-04-08T11:19:15.982Z,2.77
2023-04-08T11:21:43.404Z,2.97
2023-04-08T11:24:16.289Z,2.80
2023-04-08T11:26:43.705Z,2.80
2023-04-08T11:29:14.799Z,2.90
2023-04-08T11:31:43.958Z,2.87
2023-04-08T11:34:12.029Z,2.80
2023-04-08T11:36:41.424Z,2.77
2023-04-08T11:39:11.496Z,2.93
2023-04-08T11:41:40.424Z,3.00
2023-04-08T11:44:09.355Z,2.77
2023-04-08T11:46:36.824Z,2.80
2023-04-08T11:49:08.157Z,2.90
2023-04-08T11:51:55.476Z,2.80
2023-04-08T11:54:33.394Z,2.80
2023-04-08T11:57:01.029Z,2.70
2023-04-08T11:59:29.682Z,2.70
2023-04-08T12:01:57.681Z,2.60
2023-04-08T12:04:25.435Z,2.87
2023-04-08T12:06:53.668Z,2.60
2023-04-08T12:09:21.155Z,2.67
2023-04-08T12:11:48.696Z,2.67
2023-04-08T12:14:16.289Z,2.70
2023-04-08T12:16:43.358Z,2.70
2023-04-08T12:19:10.828Z,2.70
2023-04-08T12:21:38.360Z,2.70
2023-04-08T12:24:05.649Z,2.70
2023-04-08T12:26:32.747Z,2.70
2023-04-08T12:29:00.640Z,2.60
2023-04-08T12:31:28.359Z,2.60
2023-04-08T12:33:55.452Z,2.70
2023-04-08T12:36:22.481Z,2.57
2023-04-08T12:38:49.597Z,2.70
2023-04-08T12:41:17.007Z,2.60
2023-04-08T12:43:44.517Z,2.60
2023-04-08T12:46:11.863Z,2.67
2023-04-08T12:48:39.247Z,2.70
2023-04-08T12:51:06.877Z,2.60
2023-04-08T12:53:34.287Z,2.63
2023-04-08T12:56:01.458Z,2.60
2023-04-08T12:58:28.844Z,3.40
2023-04-08T13:00:55.845Z,2.70
2023-04-08T13:03:23.657Z,2.63
2023-04-08T13:05:51.169Z,2.73
2023-04-08T13:08:19.297Z,2.60
2023-04-08T13:10:46.289Z,2.67
2023-04-08T13:13:14.213Z,2.70
2023-04-08T13:15:41.898Z,2.70
2023-04-08T13:18:09.419Z,2.70
2023-04-08T13:20:36.858Z,2.77
2023-04-08T13:23:03.990Z,2.77
2023-04-08T13:25:31.504Z,2.83
2023-04-08T13:27:58.894Z,2.70
2023-04-08T13:30:25.878Z,2.70
2023-04-08T13:32:53.458Z,2.80
2023-04-08T13:35:20.776Z,2.70
2023-04-08T13:37:47.751Z,2.70
2023-04-08T13:40:15.131Z,2.73
2023-04-08T13:42:42.357Z,2.67
2023-04-08T13:45:10.117Z,2.80
2023-04-08T13:47:38.102Z,2.87
2023-04-08T13:50:07.297Z,2.63
2023-04-08T13:52:34.740Z,3.10
2023-04-08T13:55:02.150Z,2.67
2023-04-08T13:57:29.133Z,2.70
2023-04-08T13:59:56.569Z,2.70
2023-04-08T14:02:24.478Z,2.80
2023-04-08T14:04:52.415Z,2.63
2023-04-08T14:07:19.926Z,2.80
2023-04-08T14:09:47.297Z,2.60
2023-04-08T14:12:14.701Z,2.67
2023-04-08T14:14:42.082Z,2.73
2023-04-08T14:17:09.131Z,2.77
2023-04-08T14:19:36.747Z,2.80
2023-04-08T14:22:04.136Z,3.00
2023-04-08T14:24:31.626Z,2.80
2023-04-08T14:26:59.003Z,2.80
2023-04-08T14:29:27.663Z,2.83
2023-04-08T14:31:55.251Z,2.70
2023-04-08T14:34:22.271Z,2.70
2023-04-08T14:36:49.371Z,2.77
2023-04-08T14:39:16.817Z,2.87
2023-04-08T14:41:43.786Z,2.70
2023-04-08T14:44:11.189Z,2.70
2023-04-08T14:46:38.269Z,2.80
2023-04-08T14:49:06.024Z,2.73
2023-04-08T14:51:33.669Z,2.77
2023-04-08T14:54:01.994Z,2.80
2023-04-08T14:56:29.430Z,2.77
2023-04-08T14:58:56.550Z,2.67
2023-04-08T15:01:23.985Z,2.70
2023-04-08T15:03:51.583Z,2.60
2023-04-08T15:06:21.611Z,2.67
2023-04-08T15:08:48.735Z,2.80
2023-04-08T15:11:16.591Z,2.60
2023-04-08T15:13:44.123Z,2.70
2023-04-08T15:16:11.556Z,2.70
2023-04-08T15:18:38.750Z,2.60
2023-04-08T15:21:06.186Z,2.60
2023-04-08T15:23:33.759Z,2.70
2023-04-08T15:26:01.078Z,2.60
2023-04-08T15:28:28.505Z,2.60
2023-04-08T15:30:55.944Z,2.70
2023-04-08T15:33:22.996Z,2.70
2023-04-08T15:35:50.123Z,2.60
2023-04-08T15:38:17.831Z,2.70
2023-04-08T15:40:46.807Z,2.83
2023-04-08T15:43:15.608Z,2.60
2023-04-08T15:45:44.475Z,2.70
2023-04-08T15:48:12.198Z,2.60
2023-04-08T15:50:39.833Z,2.57
2023-04-08T15:53:07.349Z,2.70
2023-04-08T15:55:41.768Z,2.73
2023-04-08T15:58:09.197Z,2.77
2023-04-08T16:00:36.214Z,2.80
2023-04-08T16:03:05.331Z,2.70
2023-04-08T16:05:35.742Z,2.67
2023-04-08T16:08:04.331Z,2.70
2023-04-08T16:10:31.888Z,2.60
2023-04-08T16:12:59.308Z,2.80
2023-04-08T16:15:26.527Z,2.90
2023-04-08T16:17:54.303Z,2.70
2023-04-08T16:20:22.346Z,2.73
2023-04-08T16:22:50.154Z,2.70
2023-04-08T16:25:17.818Z,2.77
2023-04-08T16:27:44.876Z,2.67
2023-04-08T16:30:12.195Z,2.80
2023-04-08T16:32:39.513Z,2.90
2023-04-08T16:35:07.086Z,2.70
2023-04-08T16:37:34.625Z,2.70
2023-04-08T16:40:03.135Z,2.60
2023-04-08T16:42:31.112Z,2.70
2023-04-08T16:44:59.445Z,2.70
2023-04-08T16:47:27.418Z,2.70
2023-04-08T16:49:54.877Z,2.67
2023-04-08T16:52:21.862Z,2.60
2023-04-08T16:54:49.316Z,2.80
2023-04-08T16:57:16.676Z,2.73
2023-04-08T16:59:44.076Z,2.87
2023-04-08T17:02:11.860Z,2.77
2023-04-08T17:04:38.905Z,2.90
2023-04-08T17:07:06.306Z,2.70
2023-04-08T17:09:33.245Z,2.90
2023-04-08T17:12:01.158Z,2.80
2023-04-08T17:14:28.440Z,2.73
2023-04-08T17:16:55.785Z,2.73
2023-04-08T17:19:23.400Z,2.70
2023-04-08T17:21:50.646Z,2.77
2023-04-08T17:24:18.122Z,2.80
2023-04-08T17:26:46.086Z,2.77
2023-04-08T17:29:13.515Z,2.77
2023-04-08T17:31:41.257Z,2.73
2023-04-08T17:34:08.283Z,2.70
2023-04-08T17:36:35.757Z,2.77
2023-04-08T17:39:02.841Z,2.70
2023-04-08T17:41:39.687Z,2.77
2023-04-08T17:44:08.349Z,2.77
2023-04-08T17:46:35.803Z,2.80
2023-04-08T17:49:02.887Z,2.80
2023-04-08T17:51:30.858Z,2.80
2023-04-08T17:53:58.738Z,2.67
2023-04-08T17:56:27.701Z,2.80
2023-04-08T17:58:54.736Z,2.60
2023-04-08T18:01:22.399Z,2.77
2023-04-08T18:03:51.747Z,2.70
2023-04-08T18:06:19.461Z,2.90
2023-04-08T18:08:46.533Z,2.70
2023-04-08T18:11:14.075Z,2.77
2023-04-08T18:13:41.492Z,2.70
2023-04-08T18:16:17.838Z,2.80
2023-04-08T18:18:46.877Z,2.77
2023-04-08T18:21:15.253Z,2.70
2023-04-08T18:23:42.813Z,2.70
2023-04-08T18:26:10.697Z,2.70
2023-04-08T18:28:37.761Z,2.80
2023-04-08T18:31:05.935Z,2.80
2023-04-08T18:33:33.576Z,2.73
2023-04-08T18:36:12.476Z,2.80
2023-04-08T18:38:41.060Z,2.70
2023-04-08T18:41:08.849Z,2.80
2023-04-08T18:43:36.352Z,2.67
2023-04-08T18:46:04.578Z,2.80
2023-04-08T18:48:33.052Z,2.80
2023-04-08T18:51:04.236Z,2.70
2023-04-08T18:53:31.754Z,2.70
2023-04-08T18:56:00.284Z,2.83
2023-04-08T18:58:28.197Z,2.80
2023-04-08T19:00:55.694Z,2.80
2023-04-08T19:03:23.816Z,2.73
2023-04-08T19:05:51.405Z,2.70
2023-04-08T19:08:18.624Z,2.73
2023-04-08T19:10:46.152Z,2.70
2023-04-08T19:13:13.673Z,2.80
2023-04-08T19:15:40.736Z,2.80
2023-04-08T19:18:08.336Z,2.70
2023-04-08T19:20:35.330Z,2.80
2023-04-08T19:23:03.255Z,2.70
2023-04-08T19:25:30.692Z,2.70
2023-04-08T19:27:58.401Z,2.70
2023-04-08T19:30:25.768Z,2.80
2023-04-08T19:32:53.732Z,2.80
2023-04-08T19:35:21.183Z,2.77
2023-04-08T19:37:48.629Z,2.80
2023-04-08T19:40:16.101Z,2.73
2023-04-08T19:42:44.633Z,2.80
2023-04-08T19:45:11.974Z,2.70
2023-04-08T19:47:44.649Z,2.80
2023-04-08T19:50:12.647Z,2.77
2023-04-08T19:52:40.197Z,2.80
2023-04-08T19:55:10.130Z,2.80
2023-04-08T19:57:37.334Z,2.70
2023-04-08T20:00:05.317Z,2.80
2023-04-08T20:02:33.881Z,2.80
2023-04-08T20:05:01.926Z,2.80
2023-04-08T20:07:29.490Z,2.70
2023-04-08T20:09:56.874Z,2.80
2023-04-08T20:12:23.900Z,2.80
2023-04-08T20:14:51.082Z,2.90
2023-04-08T20:17:19.839Z,2.70
2023-04-08T20:19:47.226Z,2.77
2023-04-08T20:22:14.650Z,2.80
2023-04-08T20:24:42.112Z,2.80
2023-04-08T20:27:09.591Z,2.73
2023-04-08T20:29:36.612Z,2.80
2023-04-08T20:32:04.176Z,2.80
2023-04-08T20:34:31.219Z,2.80
2023-04-08T20:36:58.744Z,2.90
2023-04-08T20:39:30.778Z,2.70
2023-04-08T20:41:59.032Z,2.77
2023-04-08T20:44:27.647Z,2.80
2023-04-08T20:46:55.178Z,2.77
2023-04-08T20:49:22.590Z,2.80
2023-04-08T20:51:50.442Z,2.80
2023-04-08T20:54:18.433Z,2.90
2023-04-08T20:56:45.457Z,2.80
2023-04-08T20:59:12.889Z,2.77
2023-04-08T21:01:41.130Z,2.77
2023-04-08T21:04:08.744Z,2.70
2023-04-08T21:06:37.445Z,2.80
2023-04-08T21:09:05.032Z,2.80
2023-04-08T21:11:32.478Z,2.70
2023-04-08T21:13:59.483Z,2.77
2023-04-08T21:16:28.924Z,2.80
2023-04-08T21:18:58.142Z,2.77
2023-04-08T21:21:25.603Z,2.83
2023-04-08T21:23:53.531Z,2.80
2023-04-08T21:26:21.854Z,2.83
2023-04-08T21:28:50.059Z,2.70
2023-04-08T21:31:17.666Z,2.90
2023-04-08T21:33:45.523Z,2.80
2023-04-08T21:36:12.964Z,2.80
2023-04-08T21:38:41.522Z,2.83
2023-04-08T21:41:08.943Z,2.87
2023-04-08T21:43:36.584Z,2.80
2023-04-08T21:46:04.158Z,2.90
2023-04-08T21:48:31.590Z,2.70
2023-04-08T21:50:59.007Z,2.80
2023-04-08T21:53:26.006Z,2.83
2023-04-08T21:55:53.060Z,2.80
2023-04-08T21:58:20.578Z,2.87
2023-04-08T22:00:49.102Z,2.80
2023-04-08T22:03:16.709Z,2.90
2023-04-08T22:05:44.139Z,2.80
2023-04-08T22:08:11.476Z,2.80
2023-04-08T22:10:38.494Z,2.90
2023-04-08T22:13:05.534Z,2.80
2023-04-08T22:15:32.914Z,2.83
2023-04-08T22:18:00.252Z,2.83
2023-04-08T22:20:27.952Z,2.80
2023-04-08T22:22:54.951Z,2.73
2023-04-08T22:25:21.929Z,2.80
2023-04-08T22:27:49.386Z,2.80
2023-04-08T22:30:16.848Z,2.87
2023-04-08T22:32:44.388Z,2.90
2023-04-08T22:35:11.543Z,2.87
2023-04-08T22:37:39.005Z,2.80
2023-04-08T22:40:07.422Z,2.80
2023-04-08T22:42:34.837Z,2.77
2023-04-08T22:45:01.923Z,2.80
2023-04-08T22:47:29.437Z,2.80
2023-04-08T22:49:56.927Z,2.80
2023-04-08T22:52:23.955Z,2.77
2023-04-08T22:54:51.163Z,2.77
2023-04-08T22:57:18.170Z,2.80
2023-04-08T22:59:45.672Z,2.80
2023-04-08T23:02:12.720Z,2.70
2023-04-08T23:04:39.775Z,2.80
2023-04-08T23:07:06.761Z,2.77
2023-04-08T23:09:34.169Z,2.77
2023-04-08T23:12:02.038Z,2.77
2023-04-08T23:14:29.011Z,2.80
2023-04-08T23:16:56.577Z,2.77
2023-04-08T23:19:23.581Z,2.73
2023-04-08T23:21:50.585Z,2.73
2023-04-08T23:24:17.584Z,2.77
2023-04-08T23:26:45.253Z,2.80
2023-04-08T23:29:12.221Z,2.73
2023-04-08T23:31:39.332Z,2.83
2023-04-08T23:34:06.824Z,2.77
2023-04-08T23:36:33.934Z,2.73
2023-04-08T23:39:01.432Z,2.73
2023-04-08T23:41:28.920Z,2.83
2023-04-08T23:43:55.970Z,2.80
2023-04-08T23:46:23.176Z,2.80
2023-04-08T23:48:50.482Z,2.80
2023-04-08T23:51:18.503Z,2.80
2023-04-08T23:53:45.576Z,2.83
2023-04-08T23:56:13.129Z,2.80
2023-04-08T23:58:40.555Z,2.90
